Time;durP1;ratioP1;P1;durP2;ratioP2;P2;SDS_P1;SDS_P2;PMS_P1;PMS_P2;Temp;Humidity;BMP_temperature;BMP_pressure;BME280_temperature;BME280_humidity;BME280_pressure;Samples;Min_cycle;Max_cycle;Signal;HPM_P1;HPM_P2
2022/04/03 00:01:42;;;;;;;11.07;8.20;;;0.60;84.70;;;-1.09;85.60;97947.09;5011603;28;20458;-81
2022/04/03 00:04:09;;;;;;;9.03;7.93;;;0.60;86.30;;;-0.91;84.49;97946.34;5017019;28;20474;-77
2022/04/03 00:06:38;;;;;;;10.03;7.90;;;0.70;85.60;;;-0.88;84.69;97960.16;5048081;28;20498;-76
2022/04/03 00:09:05;;;;;;;8.70;7.70;;;0.80;85.20;;;-1.00;85.00;97943.59;5033438;28;20520;-78
2022/04/03 00:11:32;;;;;;;9.50;8.40;;;0.70;84.50;;;-1.01;85.13;97946.38;5031107;28;20446;-78
2022/04/03 00:14:00;;;;;;;12.40;8.10;;;0.70;85.20;;;-0.76;84.93;97944.06;5026559;28;20484;-74
2022/04/03 00:16:27;;;;;;;8.57;7.23;;;0.80;86.70;;;-0.83;83.76;97953.56;5020719;28;20493;-79
2022/04/03 00:18:55;;;;;;;12.67;8.00;;;0.90;84.40;;;-1.03;84.79;97950.97;5026573;28;20464;-76
2022/04/03 00:21:22;;;;;;;8.90;7.73;;;0.70;84.10;;;-1.08;85.72;97955.88;5030543;28;20456;-77
2022/04/03 00:23:50;;;;;;;9.33;8.30;;;0.70;85.40;;;-0.97;85.07;97957.53;5031475;28;20439;-76
2022/04/03 00:26:17;;;;;;;11.43;7.70;;;0.70;86.50;;;-1.08;85.03;97937.31;5027353;28;20471;-77
2022/04/03 00:28:44;;;;;;;11.63;8.20;;;0.70;85.20;;;-0.89;85.11;97955.84;5020693;28;20457;-81
2022/04/03 00:31:12;;;;;;;9.73;7.70;;;0.70;85.40;;;-0.98;84.75;97951.41;5029838;28;20467;-79
2022/04/03 00:33:40;;;;;;;8.57;7.37;;;0.70;84.40;;;-1.44;84.03;97896.38;5010444;28;20466;-79
2022/04/03 00:36:07;;;;;;;8.17;7.20;;;0.60;84.20;;;-1.08;84.52;97961.19;5000850;28;20502;-83
2022/04/03 00:38:34;;;;;;;12.53;8.17;;;0.60;84.80;;;-1.18;85.01;97962.03;4999959;28;20465;-82
2022/04/03 00:41:06;;;;;;;10.20;8.47;;;0.50;84.60;;;-1.16;84.74;97960.06;5009178;28;20463;-79
2022/04/03 00:43:33;;;;;;;14.20;7.00;;;0.50;85.30;;;-1.17;84.93;97958.41;5019629;28;20514;-81
2022/04/03 00:46:01;;;;;;;10.07;8.63;;;0.50;85.90;;;-1.24;86.53;97957.31;5026614;28;20578;-80
2022/04/03 00:48:28;;;;;;;9.83;8.13;;;0.50;86.80;;;-1.37;86.37;97962.88;5008960;28;20512;-81
2022/04/03 00:50:55;;;;;;;9.57;8.57;;;0.40;87.00;;;-1.47;86.78;97962.91;5010203;28;20491;-81
2022/04/03 00:53:23;;;;;;;10.43;8.23;;;0.20;87.60;;;-1.50;87.33;97963.19;5009564;28;20457;-79
2022/04/03 00:55:51;;;;;;;11.03;9.43;;;0.20;88.40;;;-1.49;87.25;97948.94;5007270;28;20443;-82
2022/04/03 00:58:23;;;;;;;12.90;10.03;;;0.20;89.00;;;-1.88;87.90;97922.47;5013550;28;20442;-75
2022/04/03 01:00:50;;;;;;;11.87;9.17;;;0.10;90.00;;;-1.77;88.45;97955.94;5011233;28;20492;-82
2022/04/03 01:03:17;;;;;;;11.60;8.60;;;0.00;90.20;;;-1.90;87.97;97946.44;5010634;28;20521;-78
2022/04/03 01:05:44;;;;;;;8.93;7.90;;;-0.10;90.30;;;-1.87;87.62;97955.94;5006343;28;20565;-81
2022/04/03 01:08:11;;;;;;;12.87;8.57;;;-0.10;90.50;;;-1.94;88.03;97954.78;4999168;28;20458;-81
2022/04/03 01:10:40;;;;;;;9.20;8.27;;;-0.20;90.10;;;-1.93;87.07;97959.09;5020415;28;20455;-82
2022/04/03 01:13:07;;;;;;;10.73;8.10;;;-0.20;89.20;;;-1.95;87.43;97961.06;5022857;28;20464;-80
2022/04/03 01:15:35;;;;;;;10.80;8.43;;;-0.20;89.20;;;-2.24;87.02;97932.72;5006195;28;20544;-79
2022/04/03 01:18:03;;;;;;;10.07;7.70;;;-0.30;89.00;;;-2.05;86.99;97967.16;5023765;28;20493;-82
2022/04/03 01:20:30;;;;;;;14.67;8.63;;;-0.30;88.00;;;-2.15;87.47;97963.69;5008463;28;20455;-80
2022/04/03 01:22:57;;;;;;;8.97;7.90;;;-0.40;88.10;;;-2.20;87.37;97965.88;4989876;28;20456;-82
2022/04/03 01:25:26;;;;;;;10.37;7.50;;;-0.40;88.30;;;-2.17;87.15;97965.63;5000653;28;20483;-80
2022/04/03 01:27:53;;;;;;;10.13;8.20;;;-0.40;88.50;;;-2.33;87.30;97966.97;5007748;28;20958;-82
2022/04/03 01:30:20;;;;;;;7.73;6.93;;;-0.50;88.50;;;-2.36;87.09;97967.22;5008290;28;20762;-81
2022/04/03 01:32:47;;;;;;;7.93;6.97;;;-0.60;88.60;;;-2.34;87.35;97965.31;5008456;28;20453;-79
2022/04/03 01:35:14;;;;;;;10.10;8.27;;;-0.60;88.60;;;-2.19;86.33;97972.88;5007484;28;20975;-78
2022/04/03 01:37:41;;;;;;;8.83;7.90;;;-0.50;88.20;;;-2.34;87.51;97967.09;5006392;28;20516;-82
2022/04/03 01:40:09;;;;;;;10.67;8.13;;;-0.60;89.30;;;-2.88;88.09;97894.09;5004271;28;20464;-81
2022/04/03 01:42:38;;;;;;;10.70;8.30;;;-0.70;90.00;;;-2.72;88.63;97925.34;5013189;28;20512;-82
2022/04/03 01:45:07;;;;;;;9.30;8.13;;;-0.70;91.10;;;-2.56;89.52;97969.81;5006508;28;20879;-82
2022/04/03 01:47:35;;;;;;;11.27;8.17;;;-0.80;91.20;;;-2.73;90.05;97965.16;5011216;28;20512;-80
2022/04/03 01:50:03;;;;;;;10.67;9.00;;;-0.90;91.80;;;-2.72;90.56;97975.59;5010066;28;20478;-80
2022/04/03 01:52:29;;;;;;;10.13;8.40;;;-0.90;92.60;;;-2.65;90.94;97977.72;5011923;28;20453;-81
2022/04/03 01:54:56;;;;;;;9.23;8.27;;;-0.90;93.60;;;-2.61;90.38;97971.19;5007301;28;20545;-80
2022/04/03 01:57:24;;;;;;;12.63;8.70;;;-0.90;93.80;;;-2.94;90.75;97926.38;5011431;28;20455;-81
2022/04/03 01:59:52;;;;;;;9.40;8.30;;;-0.90;93.50;;;-2.68;91.55;97962.09;5010123;28;20463;-80
2022/04/03 02:02:19;;;;;;;11.73;8.80;;;-0.80;93.80;;;-2.54;91.09;97974.13;5014990;28;20459;-80
2022/04/03 02:04:46;;;;;;;8.90;8.10;;;-0.80;94.40;;;-2.49;91.06;97972.75;5008413;28;20564;-76
2022/04/03 02:07:13;;;;;;;10.67;8.40;;;-0.80;94.00;;;-2.40;90.59;97973.78;4995134;28;20574;-80
2022/04/03 02:09:40;;;;;;;9.20;8.10;;;-0.70;93.30;;;-2.43;90.61;97976.69;5016385;28;20456;-80
2022/04/03 02:12:08;;;;;;;11.07;9.23;;;-0.70;93.20;;;-2.41;90.03;97974.75;5022216;28;20938;-81
2022/04/03 02:14:35;;;;;;;9.80;8.07;;;-0.70;93.20;;;-2.37;90.01;97980.63;5015850;28;20477;-81
2022/04/03 02:17:04;;;;;;;9.90;8.90;;;-0.70;92.90;;;-2.50;90.35;97981.69;5014407;28;21002;-82
2022/04/03 02:19:31;;;;;;;9.30;8.30;;;-0.70;92.50;;;-2.43;90.18;97981.97;5010175;28;20892;-78
2022/04/03 02:21:58;;;;;;;10.67;8.70;;;-0.70;92.50;;;-2.52;90.64;97974.84;5011877;28;21060;-80
2022/04/03 02:24:26;;;;;;;10.60;9.17;;;-0.70;91.90;;;-2.33;89.76;97982.88;5008862;28;20624;-82
2022/04/03 02:26:53;;;;;;;12.60;8.10;;;-0.70;92.50;;;-2.43;89.62;97987.28;5016564;28;20809;-82
2022/04/03 02:29:20;;;;;;;10.53;7.23;;;-0.70;91.50;;;-2.31;89.22;97980.91;5012919;28;20536;-80
2022/04/03 02:31:47;;;;;;;11.70;7.60;;;-0.60;91.60;;;-2.34;89.50;97988.28;5013830;28;20463;-74
2022/04/03 02:34:17;;;;;;;8.43;7.50;;;-0.70;91.80;;;-2.65;89.23;97957.41;5009690;28;20939;-81
2022/04/03 02:36:44;;;;;;;8.87;7.40;;;-0.70;91.60;;;-2.35;88.55;97987.47;5028352;28;20454;-79
2022/04/03 02:39:12;;;;;;;12.30;8.03;;;-0.60;91.00;;;-2.36;88.96;97992.88;5015501;28;20476;-81
2022/04/03 02:41:40;;;;;;;8.90;7.97;;;-0.60;90.60;;;-2.40;88.79;97997.59;5016951;28;20482;-81
2022/04/03 02:44:07;;;;;;;9.37;7.20;;;-0.60;90.30;;;-2.38;89.21;97998.28;5013551;28;21134;-81
2022/04/03 02:46:34;;;;;;;8.53;6.77;;;-0.60;90.80;;;-2.38;88.93;97995.63;5015933;28;20513;-80
2022/04/03 02:49:01;;;;;;;11.60;8.27;;;-0.60;90.50;;;-2.32;88.20;97989.84;5020486;28;20524;-78
2022/04/03 02:51:30;;;;;;;8.60;7.70;;;-0.50;90.30;;;-2.40;88.30;97997.59;5027487;28;20470;-76
2022/04/03 02:53:57;;;;;;;9.87;7.97;;;-0.60;90.20;;;-2.27;88.40;98002.66;5024990;28;20457;-76
2022/04/03 02:56:24;;;;;;;10.37;8.40;;;-0.60;90.60;;;-2.30;88.48;98003.75;5026812;28;20458;-76
2022/04/03 02:58:50;;;;;;;9.10;7.40;;;-0.50;90.20;;;-2.31;88.08;97999.44;5025982;28;20492;-76
2022/04/03 03:01:18;;;;;;;9.33;7.53;;;-0.50;90.20;;;-2.34;87.94;97996.22;5025887;28;20491;-82
2022/04/03 03:03:45;;;;;;;7.33;6.63;;;-0.50;90.10;;;-2.42;89.14;98015.41;5023055;28;20510;-78
2022/04/03 03:06:12;;;;;;;11.57;7.07;;;-0.60;90.40;;;-2.38;88.92;98016.81;5007949;28;21146;-80
2022/04/03 03:08:40;;;;;;;8.97;7.40;;;-0.70;90.60;;;-2.23;88.49;98016.44;5007457;28;20462;-80
2022/04/03 03:11:07;;;;;;;8.17;6.50;;;-0.60;91.50;;;-2.38;88.23;98016.00;5012646;28;20506;-80
2022/04/03 03:13:34;;;;;;;14.57;6.83;;;-0.60;90.10;;;-2.48;88.69;98014.13;5003674;28;20598;-80
2022/04/03 03:16:01;;;;;;;12.40;6.57;;;-0.70;90.40;;;-2.59;88.61;98009.78;5012557;28;20454;-82
2022/04/03 03:18:28;;;;;;;7.80;6.60;;;-0.80;90.50;;;-2.48;88.23;98018.59;5012692;28;20512;-82
2022/04/03 03:20:55;;;;;;;8.30;7.40;;;-0.80;90.50;;;-2.52;88.14;98020.66;5011618;28;20548;-83
2022/04/03 03:23:22;;;;;;;10.03;7.80;;;-0.80;89.50;;;-2.63;88.42;98018.94;5009701;28;20897;-82
2022/04/03 03:25:50;;;;;;;8.27;7.13;;;-0.80;89.20;;;-2.62;88.22;98025.91;5008458;28;20475;-80
2022/04/03 03:28:17;;;;;;;8.93;7.47;;;-0.80;89.90;;;-2.76;88.43;98018.31;5014464;28;20449;-76
2022/04/03 03:30:44;;;;;;;9.10;7.20;;;-0.90;89.80;;;-2.75;88.24;98025.28;5013435;28;20465;-81
2022/04/03 03:33:11;;;;;;;9.10;6.20;;;-1.00;89.60;;;-2.78;88.41;98036.13;5030195;28;20551;-81
2022/04/03 03:35:38;;;;;;;9.87;6.43;;;-1.00;90.10;;;-2.76;87.81;98028.91;5012133;28;20506;-81
2022/04/03 03:38:06;;;;;;;7.20;6.40;;;-1.00;89.20;;;-2.67;87.42;98028.09;5005185;28;20461;-81
2022/04/03 03:40:34;;;;;;;5.77;5.27;;;-1.00;89.80;;;-2.73;87.60;98033.91;5008867;28;20472;-82
2022/04/03 03:43:03;;;;;;;6.43;5.70;;;-1.00;89.60;;;-2.93;87.81;98028.53;5009768;28;20704;-80
2022/04/03 03:45:29;;;;;;;6.37;5.77;;;-1.10;88.90;;;-3.07;88.15;98015.63;5004715;28;20549;-80
2022/04/03 03:47:57;;;;;;;10.83;6.77;;;-1.10;89.40;;;-2.91;87.98;98031.88;5009872;28;20453;-81
2022/04/03 03:50:25;;;;;;;7.53;5.80;;;-1.10;89.70;;;-3.25;88.50;97971.28;5007333;28;20826;-82
2022/04/03 03:52:52;;;;;;;7.53;5.90;;;-1.10;90.00;;;-2.83;88.46;98038.31;5009608;28;20977;-79
2022/04/03 03:55:20;;;;;;;9.60;6.33;;;-1.10;90.50;;;-2.97;88.21;98042.13;5025868;28;20540;-81
2022/04/03 03:57:47;;;;;;;8.33;6.23;;;-1.20;90.10;;;-2.93;88.35;98044.38;5010803;28;20456;-81
2022/04/03 04:00:17;;;;;;;6.97;6.23;;;-1.20;90.30;;;-2.86;87.89;98045.53;5009854;28;20597;-81
2022/04/03 04:02:44;;;;;;;10.40;6.30;;;-1.20;90.40;;;-2.80;87.44;98049.47;5012957;28;20607;-82
2022/04/03 04:05:11;;;;;;;6.87;6.20;;;-1.10;89.70;;;-2.82;87.54;98046.13;5006988;28;21280;-82
2022/04/03 04:07:40;;;;;;;5.87;5.27;;;-1.10;89.00;;;-2.94;87.88;98037.44;5010802;28;20491;-81
2022/04/03 04:10:08;;;;;;;7.30;5.43;;;-1.10;89.80;;;-2.94;88.65;98053.28;4988904;28;20954;-78
2022/04/03 04:12:36;;;;;;;8.07;5.90;;;-1.20;89.80;;;-3.41;88.92;97987.56;4992633;28;20495;-80
2022/04/03 04:15:03;;;;;;;8.23;6.20;;;-1.30;90.40;;;-3.06;88.73;98049.03;5000434;28;20898;-82
2022/04/03 04:17:36;;;;;;;7.03;5.63;;;-1.30;90.20;;;-3.18;88.34;98046.41;5010961;28;20458;-82
2022/04/03 04:20:06;;;;;;;8.10;5.90;;;-1.30;90.20;;;-3.20;88.50;98050.16;5007098;28;20452;-82
2022/04/03 04:22:33;;;;;;;7.80;5.77;;;-1.30;90.30;;;-3.16;87.56;98059.53;5011648;28;20496;-80
2022/04/03 04:25:01;;;;;;;7.47;5.73;;;-1.30;88.70;;;-3.10;87.58;98059.00;5023817;28;20456;-81
2022/04/03 04:27:28;;;;;;;7.07;5.90;;;-1.30;89.20;;;-3.05;87.16;98063.91;5013338;28;20487;-78
2022/04/03 04:29:55;;;;;;;7.97;5.70;;;-1.30;88.50;;;-3.10;87.78;98074.88;5030636;28;20452;-80
2022/04/03 04:32:22;;;;;;;7.40;5.13;;;-1.30;88.40;;;-3.19;87.29;98073.81;4992942;28;20469;-80
2022/04/03 04:34:50;;;;;;;7.57;5.70;;;-1.40;88.30;;;-3.35;87.67;98041.69;5009124;28;20455;-77
2022/04/03 04:37:18;;;;;;;6.50;5.97;;;-1.40;89.10;;;-3.27;87.35;98071.81;5024471;28;20457;-75
2022/04/03 04:39:45;;;;;;;8.60;5.60;;;-1.40;87.60;;;-3.27;87.91;98073.59;5027855;28;20511;-78
2022/04/03 04:42:12;;;;;;;7.37;5.67;;;-1.40;88.40;;;-3.30;87.82;98052.72;5020060;28;20460;-82
2022/04/03 04:44:39;;;;;;;6.67;5.90;;;-1.40;89.00;;;-3.37;88.07;98086.72;5007685;28;20456;-82
2022/04/03 04:47:07;;;;;;;10.03;6.33;;;-1.50;89.00;;;-3.34;88.16;98086.47;5010358;28;20535;-80
2022/04/03 04:49:34;;;;;;;7.60;5.83;;;-1.50;89.60;;;-3.42;88.67;98086.28;5006626;28;20657;-80
2022/04/03 04:52:04;;;;;;;7.67;6.03;;;-1.60;89.40;;;-3.48;88.67;98068.28;5011095;28;21012;-79
2022/04/03 04:54:31;;;;;;;7.20;6.00;;;-1.60;90.50;;;-3.51;88.73;98087.00;5008487;28;20540;-79
2022/04/03 04:56:59;;;;;;;6.97;6.27;;;-1.60;89.70;;;-3.39;88.18;98093.13;5010939;28;21182;-81
2022/04/03 04:59:26;;;;;;;7.10;5.40;;;-1.60;89.80;;;-3.48;88.24;98097.38;5010282;28;20501;-82
2022/04/03 05:01:56;;;;;;;6.13;5.53;;;-1.60;89.40;;;-3.49;89.15;98100.94;5010989;28;20456;-82
2022/04/03 05:04:23;;;;;;;16.17;7.70;;;-1.70;90.10;;;-3.59;89.02;98098.19;5031723;28;20928;-82
2022/04/03 05:06:52;;;;;;;10.00;7.10;;;-1.70;90.30;;;-3.56;89.05;98087.41;5025736;28;20488;-80
2022/04/03 05:09:21;;;;;;;6.93;5.63;;;-1.70;90.80;;;-3.58;89.54;98102.53;5009292;28;20519;-82
2022/04/03 05:11:49;;;;;;;11.50;5.50;;;-1.70;90.30;;;-3.62;89.54;98103.75;5009944;28;20894;-80
2022/04/03 05:14:16;;;;;;;7.07;5.80;;;-1.80;90.50;;;-3.58;89.20;98102.53;5010076;28;20515;-80
2022/04/03 05:16:44;;;;;;;7.67;5.87;;;-1.70;90.60;;;-3.50;89.20;98110.69;5011065;28;20465;-82
2022/04/03 05:19:13;;;;;;;7.47;6.50;;;-1.70;90.70;;;-3.44;88.94;98125.19;5007806;28;20476;-81
2022/04/03 05:21:41;;;;;;;7.13;6.43;;;-1.70;91.10;;;-3.52;89.82;98112.63;5009060;28;20461;-78
2022/04/03 05:24:08;;;;;;;8.40;5.70;;;-1.70;91.20;;;-3.35;88.21;98118.34;5027400;28;20452;-82
2022/04/03 05:26:36;;;;;;;6.63;5.67;;;-1.60;89.80;;;-3.46;89.70;98116.56;5010486;28;20480;-81
2022/04/03 05:29:03;;;;;;;9.00;6.70;;;-1.60;90.60;;;-3.46;88.87;98120.03;5009121;28;20969;-81
2022/04/03 05:31:31;;;;;;;9.07;7.40;;;-1.60;90.30;;;-3.46;89.09;98120.03;5025208;28;20541;-77
2022/04/03 05:33:58;;;;;;;8.30;6.30;;;-1.60;90.60;;;-3.55;89.14;98112.88;5007573;28;22212;-81
2022/04/03 05:36:25;;;;;;;8.13;5.90;;;-1.60;90.60;;;-3.46;89.36;98125.31;5011621;28;20449;-81
2022/04/03 05:38:52;;;;;;;8.73;5.83;;;-1.60;90.90;;;-3.39;88.06;98135.41;5011139;28;20462;-76
2022/04/03 05:41:19;;;;;;;7.93;6.57;;;-1.60;89.40;;;-3.30;87.55;98126.72;5011945;28;20858;-81
2022/04/03 05:43:50;;;;;;;8.63;6.43;;;-1.40;88.80;;;-3.06;87.87;98146.84;5021791;28;20564;-79
2022/04/03 05:46:17;;;;;;;7.40;5.73;;;-1.40;89.60;;;-2.94;86.33;98134.41;5025582;28;20454;-79
2022/04/03 05:48:44;;;;;;;7.40;5.53;;;-1.30;87.20;;;-2.80;85.60;98144.69;5043854;28;20464;-75
2022/04/03 05:51:11;;;;;;;10.20;6.00;;;-1.10;86.00;;;-2.89;85.50;98135.72;5030306;28;20440;-74
2022/04/03 05:53:39;;;;;;;8.67;5.87;;;-1.10;85.10;;;-3.05;85.70;98145.88;5029579;28;20437;-77
2022/04/03 05:56:06;;;;;;;5.87;5.27;;;-1.20;84.00;;;-3.10;85.29;98143.59;5030031;28;20456;-75
2022/04/03 05:58:33;;;;;;;8.27;5.37;;;-1.20;84.30;;;-3.12;85.49;98140.25;5028209;28;20443;-76
2022/04/03 06:01:02;;;;;;;7.73;5.90;;;-1.30;84.30;;;-2.98;84.80;98131.16;5022883;28;20496;-79
2022/04/03 06:03:29;;;;;;;8.00;5.47;;;-1.10;82.70;;;-3.59;83.86;98005.75;5014402;28;20469;-79
2022/04/03 06:05:58;;;;;;;6.70;5.80;;;-1.00;82.70;;;-2.47;83.62;98155.22;5009653;28;20461;-75
2022/04/03 06:08:25;;;;;;;7.57;6.63;;;-0.80;82.30;;;-2.42;82.34;98153.88;5008407;28;20976;-78
2022/04/03 06:10:52;;;;;;;5.63;4.87;;;-0.70;80.10;;;-2.30;81.14;98157.28;4991891;28;20455;-80
2022/04/03 06:13:22;;;;;;;8.83;6.97;;;-0.60;78.60;;;-2.22;80.98;98164.56;4999609;28;20524;-70
2022/04/03 06:15:49;;;;;;;6.07;4.90;;;-0.50;78.10;;;-2.30;81.26;98165.22;5008002;28;20569;-80
2022/04/03 06:18:19;;;;;;;6.40;5.20;;;-0.50;77.80;;;-2.34;81.78;98166.47;5008357;28;20957;-77
2022/04/03 06:20:47;;;;;;;7.70;5.10;;;-0.50;78.00;;;-2.21;80.77;98171.53;5017690;28;20510;-81
2022/04/03 06:23:18;;;;;;;10.13;4.70;;;-0.40;77.40;;;-2.13;79.60;98173.53;5013081;28;21060;-80
2022/04/03 06:25:47;;;;;;;9.00;5.17;;;-0.40;76.20;;;-2.40;79.59;98102.63;4995500;28;20467;-77
2022/04/03 06:28:14;;;;;;;6.07;5.47;;;-0.30;76.60;;;-2.17;79.12;98157.06;5022874;28;20473;-79
2022/04/03 06:30:41;;;;;;;7.17;5.30;;;-0.30;75.80;;;-2.12;79.03;98151.38;5009821;28;20474;-78
2022/04/03 06:33:08;;;;;;;7.73;5.27;;;-0.30;75.70;;;-1.92;79.51;98164.72;5009795;28;21928;-80
2022/04/03 06:35:37;;;;;;;5.33;4.90;;;-0.20;76.30;;;-1.86;78.81;98175.63;5009452;28;20462;-81
2022/04/03 06:38:04;;;;;;;6.77;4.43;;;-0.10;75.70;;;-1.69;77.28;98169.84;5027386;28;20454;-79
2022/04/03 06:40:33;;;;;;;5.80;4.90;;;0.00;74.50;;;-1.65;77.87;98176.56;5009848;28;20539;-77
2022/04/03 06:43:00;;;;;;;6.40;4.57;;;0.10;74.50;;;-1.65;78.17;98181.84;5010458;28;20472;-79
2022/04/03 06:45:29;;;;;;;5.03;4.60;;;0.10;74.80;;;-1.92;76.66;98115.25;5010182;28;20861;-76
2022/04/03 06:47:57;;;;;;;5.20;4.20;;;0.20;73.70;;;-1.64;75.60;98186.19;5012512;28;20513;-80
2022/04/03 06:50:25;;;;;;;6.50;4.80;;;0.20;72.50;;;-1.63;76.22;98190.50;5031528;28;20956;-78
2022/04/03 06:52:54;;;;;;;5.53;4.93;;;0.10;72.70;;;-1.78;76.46;98193.50;5013183;28;20554;-82
2022/04/03 06:55:21;;;;;;;5.90;4.90;;;0.00;72.30;;;-1.75;76.20;98185.28;5010137;28;20462;-80
2022/04/03 06:57:48;;;;;;;4.73;4.23;;;0.00;72.40;;;-1.71;74.95;98188.50;5023676;28;20834;-80
2022/04/03 07:00:16;;;;;;;7.33;5.10;;;0.00;71.80;;;-1.75;76.73;98195.88;5012060;28;20551;-80
2022/04/03 07:02:43;;;;;;;6.23;4.80;;;0.10;72.70;;;-1.58;75.70;98190.97;5005384;28;20525;-75
2022/04/03 07:05:11;;;;;;;3.93;3.63;;;0.20;73.00;;;-1.45;74.55;98194.19;5008369;28;20484;-78
2022/04/03 07:07:38;;;;;;;5.97;5.37;;;0.30;71.50;;;-1.54;73.87;98202.97;5012374;28;20474;-76
2022/04/03 07:10:09;;;;;;;4.53;4.13;;;0.30;70.60;;;-1.43;73.56;98200.22;5012176;28;20466;-80
2022/04/03 07:12:36;;;;;;;6.70;3.97;;;0.30;70.30;;;-2.03;73.49;98137.38;5012081;28;20485;-82
2022/04/03 07:15:03;;;;;;;5.63;4.10;;;0.20;70.00;;;-1.45;72.94;98207.44;5009516;28;21001;-82
2022/04/03 07:17:30;;;;;;;10.33;4.33;;;0.30;69.60;;;-1.42;72.69;98206.34;5013684;28;20493;-77
2022/04/03 07:19:57;;;;;;;4.40;4.00;;;0.30;69.30;;;-1.42;72.10;98211.63;5011896;28;20458;-81
2022/04/03 07:22:25;;;;;;;4.40;3.80;;;0.40;69.10;;;-1.36;72.04;98213.78;5020078;28;20492;-76
2022/04/03 07:24:52;;;;;;;5.90;4.53;;;0.40;69.20;;;-1.24;71.91;98205.69;5013819;28;20475;-79
2022/04/03 07:27:20;;;;;;;5.60;4.10;;;0.60;69.10;;;-1.09;70.51;98214.13;5010164;28;20478;-78
2022/04/03 07:29:49;;;;;;;4.90;4.33;;;0.60;68.30;;;-1.13;71.22;98218.84;5011221;28;20481;-80
2022/04/03 07:32:16;;;;;;;6.20;4.63;;;0.60;68.10;;;-1.02;70.68;98221.41;5012206;28;20457;-79
2022/04/03 07:34:43;;;;;;;6.73;4.37;;;0.70;67.90;;;-1.02;71.68;98220.53;5007912;28;20528;-80
2022/04/03 07:37:10;;;;;;;5.33;3.80;;;0.80;68.60;;;-1.04;70.12;98226.00;5026056;28;20517;-79
2022/04/03 07:39:37;;;;;;;6.90;4.60;;;0.80;66.80;;;-0.93;71.17;98229.50;5023714;28;20509;-80
2022/04/03 07:42:05;;;;;;;5.90;3.97;;;0.80;67.60;;;-0.64;68.18;98229.53;5003900;28;20453;-76
2022/04/03 07:44:34;;;;;;;3.70;3.33;;;1.00;66.10;;;-0.79;68.25;98241.53;5010768;28;20969;-78
2022/04/03 07:47:01;;;;;;;4.57;3.67;;;1.00;64.80;;;-0.78;67.87;98237.91;5010432;28;20489;-82
2022/04/03 07:49:28;;;;;;;6.40;4.27;;;1.00;64.60;;;-0.70;67.70;98245.19;5010665;28;20502;-79
2022/04/03 07:51:56;;;;;;;5.10;4.00;;;1.00;64.30;;;-0.60;65.22;98246.03;5011784;28;20549;-78
2022/04/03 07:54:23;;;;;;;5.73;3.87;;;1.20;62.80;;;-0.37;64.71;98245.75;5008341;28;21014;-80
2022/04/03 07:56:49;;;;;;;4.97;4.03;;;1.30;62.30;;;-0.15;65.96;98244.63;5011368;28;20497;-75
2022/04/03 07:59:16;;;;;;;5.63;4.23;;;1.60;63.10;;;0.07;65.77;98245.28;5001199;28;20463;-80
2022/04/03 08:01:45;;;;;;;4.60;3.77;;;1.70;63.10;;;-0.14;64.48;98248.94;5010267;28;20466;-80
2022/04/03 08:04:13;;;;;;;5.40;4.03;;;1.70;61.50;;;-0.38;65.55;98255.56;5009647;28;20455;-80
2022/04/03 08:06:40;;;;;;;4.80;4.00;;;1.50;61.70;;;-0.03;64.95;98263.91;5009486;28;20462;-77
2022/04/03 08:09:08;;;;;;;6.90;4.53;;;1.60;61.80;;;-0.16;64.56;98269.50;5004321;28;21000;-79
2022/04/03 08:11:35;;;;;;;4.80;3.73;;;1.60;60.90;;;-0.31;62.23;98245.19;5004164;28;20477;-79
2022/04/03 08:14:02;;;;;;;4.13;3.53;;;1.50;59.00;;;-0.16;63.41;98265.03;5011419;28;20473;-78
2022/04/03 08:16:30;;;;;;;7.23;3.63;;;1.60;59.60;;;-0.17;64.07;98267.84;5009288;28;20542;-81
2022/04/03 08:18:58;;;;;;;4.23;3.83;;;1.60;60.20;;;-0.37;64.59;98275.81;5010083;28;20489;-75
2022/04/03 08:21:25;;;;;;;5.23;4.10;;;1.50;60.00;;;-0.21;64.00;98277.06;5011165;28;20467;-80
2022/04/03 08:23:53;;;;;;;6.90;3.93;;;1.50;60.00;;;-0.22;63.33;98270.09;5008774;28;20447;-79
2022/04/03 08:26:25;;;;;;;5.53;4.40;;;1.60;59.40;;;-0.13;63.15;98281.69;5008170;28;20455;-79
2022/04/03 08:28:53;;;;;;;5.50;4.37;;;1.60;59.30;;;-0.03;62.71;98282.50;5010115;28;20489;-79
2022/04/03 08:31:22;;;;;;;5.53;4.23;;;1.70;59.00;;;-0.28;63.12;98282.09;5010482;28;20449;-77
2022/04/03 08:33:49;;;;;;;5.30;4.50;;;1.50;58.90;;;-0.35;62.63;98288.94;5008785;28;20461;-80
2022/04/03 08:36:18;;;;;;;6.90;4.77;;;1.40;58.60;;;-0.17;62.37;98289.09;5024802;28;20455;-77
2022/04/03 08:38:45;;;;;;;4.10;3.70;;;1.50;58.60;;;-0.34;60.94;98272.88;5009395;28;20482;-77
2022/04/03 08:41:13;;;;;;;5.43;4.53;;;1.60;57.30;;;-0.02;60.69;98293.00;5003366;28;20459;-82
2022/04/03 08:43:41;;;;;;;4.43;3.90;;;1.60;57.20;;;0.13;60.23;98290.72;5008689;28;20974;-77
2022/04/03 08:46:09;;;;;;;5.30;3.73;;;1.80;56.60;;;0.14;59.64;98286.25;5007098;28;20464;-76
2022/04/03 08:48:44;;;;;;;3.90;3.60;;;1.80;55.70;;;0.21;59.06;98299.81;5025247;28;20504;-71
2022/04/03 08:51:11;;;;;;;5.73;3.80;;;1.90;56.10;;;0.09;58.04;98289.34;5025028;28;20777;-81
2022/04/03 08:53:40;;;;;;;3.20;2.87;;;1.90;54.20;;;0.37;56.35;98292.09;5011298;28;20459;-75
2022/04/03 08:56:07;;;;;;;4.33;3.67;;;2.00;53.40;;;0.36;56.43;98289.56;5026162;28;20560;-80
2022/04/03 08:58:34;;;;;;;4.10;3.30;;;2.10;53.00;;;0.62;56.29;98300.44;5008290;28;20461;-76
2022/04/03 09:01:02;;;;;;;4.53;3.90;;;2.30;53.50;;;0.56;58.08;98298.34;5010209;28;20463;-79
2022/04/03 09:03:30;;;;;;;4.47;3.67;;;2.30;54.10;;;0.43;57.21;98306.63;5009236;28;20857;-79
2022/04/03 09:06:14;;;;;;;3.73;3.23;;;2.20;53.30;;;0.41;56.38;98292.66;5009328;28;20518;-83
2022/04/03 09:08:43;;;;;;;4.73;3.60;;;2.20;52.50;;;0.28;57.81;98293.78;4998203;28;20577;-80
2022/04/03 09:11:10;;;;;;;5.17;3.67;;;2.10;53.40;;;0.08;56.00;98297.47;5009710;28;20564;-80
2022/04/03 09:13:39;;;;;;;7.70;3.37;;;1.90;51.70;;;0.16;56.55;98294.09;5009237;28;20443;-81
2022/04/03 09:16:08;;;;;;;3.80;3.10;;;1.90;52.00;;;0.50;56.13;98289.09;5008025;28;20544;-78
2022/04/03 09:18:50;;;;;;;3.53;3.23;;;2.20;52.30;;;0.54;54.76;98295.84;5020681;28;20872;-75
2022/04/03 09:21:23;;;;;;;3.80;3.40;;;2.20;51.40;;;0.67;54.24;98289.34;4994592;28;20501;-78
2022/04/03 09:24:04;;;;;;;3.80;2.90;;;2.40;51.60;;;0.85;54.41;98294.72;5008096;28;20465;-79
2022/04/03 09:26:33;;;;;;;4.33;3.83;;;2.50;51.20;;;1.06;54.03;98285.66;5004704;28;20459;-78
2022/04/03 09:29:13;;;;;;;4.20;3.37;;;2.70;50.80;;;1.76;54.00;98279.75;5007709;28;20466;-80
2022/04/03 09:31:41;;;;;;;4.40;4.00;;;3.10;52.10;;;1.80;53.40;98272.31;5009794;28;20997;-79
2022/04/03 09:34:15;;;;;;;5.20;3.50;;;3.40;51.40;;;2.03;52.93;98279.81;5005991;28;20565;-78
2022/04/03 09:36:42;;;;;;;3.87;3.53;;;3.60;50.80;;;2.28;53.26;98280.00;5007883;28;20451;-80
2022/04/03 09:39:15;;;;;;;3.30;3.00;;;3.80;51.20;;;2.14;50.44;98286.75;5009196;28;20492;-79
2022/04/03 09:42:01;;;;;;;4.07;3.07;;;3.90;49.20;;;1.95;51.27;98280.56;5006391;28;20446;-78
2022/04/03 09:44:32;;;;;;;3.60;3.03;;;3.80;48.90;;;1.77;51.27;98276.09;5004053;28;20538;-78
2022/04/03 09:47:20;;;;;;;3.70;3.07;;;3.50;48.60;;;1.84;52.36;98273.66;5009818;28;21143;-81
2022/04/03 09:49:54;;;;;;;3.30;2.80;;;3.60;49.10;;;1.68;50.06;98226.41;5006428;28;20806;-78
2022/04/03 09:52:39;;;;;;;4.93;2.60;;;3.60;48.10;;;1.59;46.04;98270.75;5000794;28;20448;-80
2022/04/03 09:55:28;;;;;;;4.53;2.47;;;3.50;44.20;;;1.76;47.03;98276.28;4989652;28;20459;-78
2022/04/03 09:58:04;;;;;;;3.33;2.47;;;3.30;44.70;;;1.73;48.32;98276.56;5024493;28;21130;-82
2022/04/03 10:00:33;;;;;;;3.27;2.97;;;3.40;45.10;;;2.17;49.23;98279.25;5007617;28;20557;-81
2022/04/03 10:03:02;;;;;;;5.93;2.97;;;3.60;47.00;;;2.94;48.19;98275.88;5007317;28;20448;-72
2022/04/03 10:05:30;;;;;;;4.77;2.83;;;4.20;47.10;;;3.30;47.54;98280.19;5011776;28;20975;-82
2022/04/03 10:08:00;;;;;;;3.93;2.33;;;4.60;46.80;;;3.94;45.05;98270.75;5029878;28;20475;-81
2022/04/03 10:10:29;;;;;;;4.10;2.47;;;5.30;45.80;;;3.81;43.54;98260.56;5016356;28;20548;-81
2022/04/03 10:12:57;;;;;;;3.23;2.93;;;5.40;44.10;;;3.69;43.73;98276.09;5007298;28;20483;-85
2022/04/03 10:15:24;;;;;;;2.90;2.47;;;5.30;43.40;;;3.18;44.70;98210.22;5005656;28;20545;-82
2022/04/03 10:17:51;;;;;;;3.00;2.67;;;5.40;43.80;;;3.12;45.33;98277.63;5007559;28;21334;-81
2022/04/03 10:20:19;;;;;;;3.00;2.70;;;5.00;43.60;;;2.90;46.39;98285.22;5006027;28;20554;-78
2022/04/03 10:22:50;;;;;;;3.00;2.70;;;4.70;43.80;;;2.86;45.32;98248.31;5009936;28;20447;-82
2022/04/03 10:25:26;;;;;;;3.30;3.00;;;4.70;44.20;;;2.89;45.99;98282.69;5010024;28;20975;-82
2022/04/03 10:27:58;;;;;;;3.60;2.33;;;4.50;43.70;;;2.98;44.38;98276.41;5013410;28;20557;-82